sensor_id;sensor_type;location;lat;lon;timestamp;temperature;humidity
26641;DHT22;14269;47.358;0.724;2023-12-07T00:01:11;7.0;67.0
26641;DHT22;14269;47.358;0.724;2023-12-07T00:03:42;7.0;67.0
26641;DHT22;14269;47.358;0.724;2023-12-07T00:06:14;7.0;67.0
26641;DHT22;14269;47.358;0.724;2023-12-07T00:08:45;7.0;66.0
26641;DHT22;14269;47.358;0.724;2023-12-07T00:11:17;7.0;67.0
26641;DHT22;14269;47.358;0.724;2023-12-07T00:13:49;7.0;66.0
26641;DHT22;14269;47.358;0.724;2023-12-07T00:16:20;7.0;68.0
26641;DHT22;14269;47.358;0.724;2023-12-07T00:18:52;7.0;69.0
26641;DHT22;14269;47.358;0.724;2023-12-07T00:21:24;6.0;69.0
26641;DHT22;14269;47.358;0.724;2023-12-07T00:23:55;6.0;70.0
26641;DHT22;14269;47.358;0.724;2023-12-07T00:26:27;6.0;70.0
26641;DHT22;14269;47.358;0.724;2023-12-07T00:28:59;6.0;70.0
26641;DHT22;14269;47.358;0.724;2023-12-07T00:31:30;6.0;71.0
26641;DHT22;14269;47.358;0.724;2023-12-07T00:34:03;7.0;71.0
26641;DHT22;14269;47.358;0.724;2023-12-07T00:36:44;7.0;70.0
26641;DHT22;14269;47.358;0.724;2023-12-07T00:39:16;7.0;68.0
26641;DHT22;14269;47.358;0.724;2023-12-07T00:41:57;7.0;70.0
26641;DHT22;14269;47.358;0.724;2023-12-07T00:44:29;7.0;69.0
26641;DHT22;14269;47.358;0.724;2023-12-07T00:47:00;7.0;69.0
26641;DHT22;14269;47.358;0.724;2023-12-07T00:49:32;7.0;69.0
26641;DHT22;14269;47.358;0.724;2023-12-07T00:52:04;7.0;68.0
26641;DHT22;14269;47.358;0.724;2023-12-07T00:54:35;7.0;68.0
26641;DHT22;14269;47.358;0.724;2023-12-07T00:57:07;7.0;67.0
26641;DHT22;14269;47.358;0.724;2023-12-07T00:59:39;7.0;68.0
26641;DHT22;14269;47.358;0.724;2023-12-07T01:02:10;7.0;68.0
26641;DHT22;14269;47.358;0.724;2023-12-07T01:04:42;7.0;67.0
26641;DHT22;14269;47.358;0.724;2023-12-07T01:07:14;7.0;68.0
26641;DHT22;14269;47.358;0.724;2023-12-07T01:09:46;8.0;67.0
26641;DHT22;14269;47.358;0.724;2023-12-07T01:12:17;7.0;66.0
26641;DHT22;14269;47.358;0.724;2023-12-07T01:14:48;7.0;66.0
26641;DHT22;14269;47.358;0.724;2023-12-07T01:17:20;7.0;68.0
26641;DHT22;14269;47.358;0.724;2023-12-07T01:19:52;7.0;69.0
26641;DHT22;14269;47.358;0.724;2023-12-07T01:22:23;7.0;68.0
26641;DHT22;14269;47.358;0.724;2023-12-07T01:24:55;7.0;70.0
26641;DHT22;14269;47.358;0.724;2023-12-07T01:27:27;7.0;69.0
26641;DHT22;14269;47.358;0.724;2023-12-07T01:29:58;7.0;67.0
26641;DHT22;14269;47.358;0.724;2023-12-07T01:32:30;7.0;67.0
26641;DHT22;14269;47.358;0.724;2023-12-07T01:35:02;7.0;67.0
26641;DHT22;14269;47.358;0.724;2023-12-07T01:37:33;7.0;69.0
26641;DHT22;14269;47.358;0.724;2023-12-07T01:40:10;7.0;68.0
26641;DHT22;14269;47.358;0.724;2023-12-07T01:42:51;7.0;68.0
26641;DHT22;14269;47.358;0.724;2023-12-07T01:45:28;7.0;68.0
26641;DHT22;14269;47.358;0.724;2023-12-07T01:48:00;6.0;70.0
26641;DHT22;14269;47.358;0.724;2023-12-07T01:50:33;6.0;70.0
26641;DHT22;14269;47.358;0.724;2023-12-07T01:53:14;7.0;70.0
26641;DHT22;14269;47.358;0.724;2023-12-07T01:55:56;7.0;70.0
26641;DHT22;14269;47.358;0.724;2023-12-07T01:58:27;7.0;69.0
26641;DHT22;14269;47.358;0.724;2023-12-07T02:00:58;7.0;68.0
26641;DHT22;14269;47.358;0.724;2023-12-07T02:03:31;7.0;68.0
26641;DHT22;14269;47.358;0.724;2023-12-07T02:06:03;6.0;69.0
26641;DHT22;14269;47.358;0.724;2023-12-07T02:08:44;6.0;70.0
26641;DHT22;14269;47.358;0.724;2023-12-07T02:11:25;7.0;70.0
26641;DHT22;14269;47.358;0.724;2023-12-07T02:13:57;7.0;69.0
26641;DHT22;14269;47.358;0.724;2023-12-07T02:16:31;7.0;69.0
26641;DHT22;14269;47.358;0.724;2023-12-07T02:19:23;7.0;68.0
26641;DHT22;14269;47.358;0.724;2023-12-07T02:22:06;7.0;68.0
26641;DHT22;14269;47.358;0.724;2023-12-07T02:25:04;7.0;68.0
26641;DHT22;14269;47.358;0.724;2023-12-07T02:27:37;7.0;68.0
26641;DHT22;14269;47.358;0.724;2023-12-07T02:30:18;7.0;68.0
26641;DHT22;14269;47.358;0.724;2023-12-07T02:32:49;7.0;67.0
26641;DHT22;14269;47.358;0.724;2023-12-07T02:35:22;7.0;68.0
26641;DHT22;14269;47.358;0.724;2023-12-07T02:37:54;7.0;69.0
26641;DHT22;14269;47.358;0.724;2023-12-07T02:40:35;7.0;69.0
26641;DHT22;14269;47.358;0.724;2023-12-07T02:43:07;7.0;68.0
26641;DHT22;14269;47.358;0.724;2023-12-07T02:45:48;7.0;67.0
26641;DHT22;14269;47.358;0.724;2023-12-07T02:48:20;7.0;67.0
26641;DHT22;14269;47.358;0.724;2023-12-07T02:50:51;7.0;67.0
26641;DHT22;14269;47.358;0.724;2023-12-07T02:53:23;7.0;67.0
26641;DHT22;14269;47.358;0.724;2023-12-07T02:55:54;7.0;66.0
26641;DHT22;14269;47.358;0.724;2023-12-07T02:58:26;7.0;66.0
26641;DHT22;14269;47.358;0.724;2023-12-07T03:00:59;7.0;66.0
26641;DHT22;14269;47.358;0.724;2023-12-07T03:03:42;7.0;66.0
26641;DHT22;14269;47.358;0.724;2023-12-07T03:06:21;7.0;67.0
26641;DHT22;14269;47.358;0.724;2023-12-07T03:08:53;7.0;66.0
26641;DHT22;14269;47.358;0.724;2023-12-07T03:11:24;7.0;67.0
26641;DHT22;14269;47.358;0.724;2023-12-07T03:13:56;7.0;68.0
26641;DHT22;14269;47.358;0.724;2023-12-07T03:16:28;7.0;67.0
26641;DHT22;14269;47.358;0.724;2023-12-07T03:19:00;7.0;66.0
26641;DHT22;14269;47.358;0.724;2023-12-07T03:21:42;7.0;66.0
26641;DHT22;14269;47.358;0.724;2023-12-07T03:24:23;7.0;67.0
26641;DHT22;14269;47.358;0.724;2023-12-07T03:26:55;7.0;67.0
26641;DHT22;14269;47.358;0.724;2023-12-07T03:29:26;7.0;67.0
26641;DHT22;14269;47.358;0.724;2023-12-07T03:31:58;7.0;68.0
26641;DHT22;14269;47.358;0.724;2023-12-07T03:34:29;7.0;68.0
26641;DHT22;14269;47.358;0.724;2023-12-07T03:37:01;6.0;68.0
26641;DHT22;14269;47.358;0.724;2023-12-07T03:39:43;6.0;69.0
26641;DHT22;14269;47.358;0.724;2023-12-07T03:42:15;6.0;70.0
26641;DHT22;14269;47.358;0.724;2023-12-07T03:44:47;6.0;70.0
26641;DHT22;14269;47.358;0.724;2023-12-07T03:47:28;6.0;71.0
26641;DHT22;14269;47.358;0.724;2023-12-07T03:50:00;6.0;70.0
26641;DHT22;14269;47.358;0.724;2023-12-07T03:52:31;7.0;69.0
26641;DHT22;14269;47.358;0.724;2023-12-07T03:55:03;7.0;68.0
26641;DHT22;14269;47.358;0.724;2023-12-07T03:57:45;7.0;69.0
26641;DHT22;14269;47.358;0.724;2023-12-07T04:00:17;7.0;68.0
26641;DHT22;14269;47.358;0.724;2023-12-07T04:02:48;7.0;69.0
26641;DHT22;14269;47.358;0.724;2023-12-07T04:05:20;7.0;67.0
26641;DHT22;14269;47.358;0.724;2023-12-07T04:07:51;7.0;67.0
26641;DHT22;14269;47.358;0.724;2023-12-07T04:10:23;7.0;67.0
26641;DHT22;14269;47.358;0.724;2023-12-07T04:12:55;7.0;66.0
26641;DHT22;14269;47.358;0.724;2023-12-07T04:15:26;7.0;66.0
26641;DHT22;14269;47.358;0.724;2023-12-07T04:17:58;7.0;68.0
26641;DHT22;14269;47.358;0.724;2023-12-07T04:20:29;7.0;67.0
26641;DHT22;14269;47.358;0.724;2023-12-07T04:23:01;6.0;69.0
26641;DHT22;14269;47.358;0.724;2023-12-07T04:25:33;6.0;68.0
26641;DHT22;14269;47.358;0.724;2023-12-07T04:28:05;6.0;68.0
26641;DHT22;14269;47.358;0.724;2023-12-07T04:30:36;7.0;68.0
26641;DHT22;14269;47.358;0.724;2023-12-07T04:33:08;7.0;68.0
26641;DHT22;14269;47.358;0.724;2023-12-07T04:35:39;7.0;66.0
26641;DHT22;14269;47.358;0.724;2023-12-07T04:38:11;7.0;67.0
26641;DHT22;14269;47.358;0.724;2023-12-07T04:40:43;6.0;68.0
26641;DHT22;14269;47.358;0.724;2023-12-07T04:43:14;6.0;69.0
26641;DHT22;14269;47.358;0.724;2023-12-07T04:45:46;6.0;69.0
26641;DHT22;14269;47.358;0.724;2023-12-07T04:48:17;6.0;70.0
26641;DHT22;14269;47.358;0.724;2023-12-07T04:50:49;6.0;68.0
26641;DHT22;14269;47.358;0.724;2023-12-07T04:53:21;6.0;68.0
26641;DHT22;14269;47.358;0.724;2023-12-07T04:55:52;6.0;69.0
26641;DHT22;14269;47.358;0.724;2023-12-07T04:58:24;6.0;69.0
26641;DHT22;14269;47.358;0.724;2023-12-07T05:00:56;6.0;70.0
26641;DHT22;14269;47.358;0.724;2023-12-07T05:03:27;6.0;68.0
26641;DHT22;14269;47.358;0.724;2023-12-07T05:06:00;7.0;67.0
26641;DHT22;14269;47.358;0.724;2023-12-07T05:08:31;7.0;67.0
26641;DHT22;14269;47.358;0.724;2023-12-07T05:11:03;7.0;65.0
26641;DHT22;14269;47.358;0.724;2023-12-07T05:13:35;7.0;67.0
26641;DHT22;14269;47.358;0.724;2023-12-07T05:16:16;7.0;66.0
26641;DHT22;14269;47.358;0.724;2023-12-07T05:18:47;7.0;66.0
26641;DHT22;14269;47.358;0.724;2023-12-07T05:21:20;7.0;66.0
26641;DHT22;14269;47.358;0.724;2023-12-07T05:23:51;7.0;66.0
26641;DHT22;14269;47.358;0.724;2023-12-07T05:26:22;7.0;65.0
26641;DHT22;14269;47.358;0.724;2023-12-07T05:28:54;7.0;65.0
26641;DHT22;14269;47.358;0.724;2023-12-07T05:31:26;7.0;65.0
26641;DHT22;14269;47.358;0.724;2023-12-07T05:33:57;7.0;65.0
26641;DHT22;14269;47.358;0.724;2023-12-07T05:36:29;7.0;64.0
26641;DHT22;14269;47.358;0.724;2023-12-07T05:39:01;7.0;64.0
26641;DHT22;14269;47.358;0.724;2023-12-07T05:41:32;7.0;63.0
26641;DHT22;14269;47.358;0.724;2023-12-07T05:44:04;7.0;63.0
26641;DHT22;14269;47.358;0.724;2023-12-07T05:46:36;7.0;63.0
26641;DHT22;14269;47.358;0.724;2023-12-07T05:49:07;7.0;63.0
26641;DHT22;14269;47.358;0.724;2023-12-07T05:51:39;7.0;62.0
26641;DHT22;14269;47.358;0.724;2023-12-07T05:54:10;7.0;63.0
26641;DHT22;14269;47.358;0.724;2023-12-07T05:56:43;7.0;63.0
26641;DHT22;14269;47.358;0.724;2023-12-07T05:59:14;7.0;62.0
26641;DHT22;14269;47.358;0.724;2023-12-07T06:01:45;7.0;62.0
26641;DHT22;14269;47.358;0.724;2023-12-07T06:04:17;7.0;62.0
26641;DHT22;14269;47.358;0.724;2023-12-07T06:06:49;7.0;64.0
26641;DHT22;14269;47.358;0.724;2023-12-07T06:09:20;7.0;62.0
26641;DHT22;14269;47.358;0.724;2023-12-07T06:11:53;7.0;62.0
26641;DHT22;14269;47.358;0.724;2023-12-07T06:14:24;7.0;63.0
26641;DHT22;14269;47.358;0.724;2023-12-07T06:16:55;7.0;63.0
26641;DHT22;14269;47.358;0.724;2023-12-07T06:19:27;7.0;63.0
26641;DHT22;14269;47.358;0.724;2023-12-07T06:21:59;7.0;64.0
26641;DHT22;14269;47.358;0.724;2023-12-07T06:24:30;7.0;64.0
26641;DHT22;14269;47.358;0.724;2023-12-07T06:27:02;7.0;62.0
26641;DHT22;14269;47.358;0.724;2023-12-07T06:29:33;7.0;63.0
26641;DHT22;14269;47.358;0.724;2023-12-07T06:32:05;7.0;64.0
26641;DHT22;14269;47.358;0.724;2023-12-07T06:34:39;7.0;63.0
26641;DHT22;14269;47.358;0.724;2023-12-07T06:37:20;7.0;64.0
26641;DHT22;14269;47.358;0.724;2023-12-07T06:40:00;7.0;64.0
26641;DHT22;14269;47.358;0.724;2023-12-07T06:42:32;7.0;64.0
26641;DHT22;14269;47.358;0.724;2023-12-07T06:45:05;7.0;65.0
26641;DHT22;14269;47.358;0.724;2023-12-07T06:47:45;7.0;64.0
26641;DHT22;14269;47.358;0.724;2023-12-07T06:50:17;7.0;63.0
26641;DHT22;14269;47.358;0.724;2023-12-07T06:52:49;7.0;63.0
26641;DHT22;14269;47.358;0.724;2023-12-07T06:55:22;8.0;62.0
26641;DHT22;14269;47.358;0.724;2023-12-07T06:58:02;7.0;61.0
26641;DHT22;14269;47.358;0.724;2023-12-07T07:00:34;7.0;63.0
26641;DHT22;14269;47.358;0.724;2023-12-07T07:03:06;8.0;62.0
26641;DHT22;14269;47.358;0.724;2023-12-07T07:05:37;8.0;62.0
26641;DHT22;14269;47.358;0.724;2023-12-07T07:08:09;8.0;62.0
26641;DHT22;14269;47.358;0.724;2023-12-07T07:10:40;8.0;61.0
26641;DHT22;14269;47.358;0.724;2023-12-07T07:13:15;8.0;61.0
26641;DHT22;14269;47.358;0.724;2023-12-07T07:15:55;8.0;61.0
26641;DHT22;14269;47.358;0.724;2023-12-07T07:18:27;8.0;62.0
26641;DHT22;14269;47.358;0.724;2023-12-07T07:21:07;8.0;61.0
26641;DHT22;14269;47.358;0.724;2023-12-07T07:23:39;8.0;61.0
26641;DHT22;14269;47.358;0.724;2023-12-07T07:26:10;7.0;62.0
26641;DHT22;14269;47.358;0.724;2023-12-07T07:28:42;7.0;63.0
26641;DHT22;14269;47.358;0.724;2023-12-07T07:31:14;7.0;63.0
26641;DHT22;14269;47.358;0.724;2023-12-07T07:33:47;7.0;62.0
26641;DHT22;14269;47.358;0.724;2023-12-07T07:36:27;7.0;64.0
26641;DHT22;14269;47.358;0.724;2023-12-07T07:39:09;7.0;64.0
26641;DHT22;14269;47.358;0.724;2023-12-07T07:41:41;7.0;65.0
26641;DHT22;14269;47.358;0.724;2023-12-07T07:44:12;7.0;65.0
26641;DHT22;14269;47.358;0.724;2023-12-07T07:46:44;7.0;64.0
26641;DHT22;14269;47.358;0.724;2023-12-07T07:49:15;7.0;65.0
26641;DHT22;14269;47.358;0.724;2023-12-07T07:51:47;7.0;65.0
26641;DHT22;14269;47.358;0.724;2023-12-07T07:54:19;7.0;64.0
26641;DHT22;14269;47.358;0.724;2023-12-07T07:56:50;8.0;64.0
26641;DHT22;14269;47.358;0.724;2023-12-07T07:59:22;8.0;64.0
26641;DHT22;14269;47.358;0.724;2023-12-07T08:01:54;8.0;63.0
26641;DHT22;14269;47.358;0.724;2023-12-07T08:04:25;8.0;63.0
26641;DHT22;14269;47.358;0.724;2023-12-07T08:06:57;8.0;63.0
26641;DHT22;14269;47.358;0.724;2023-12-07T08:09:29;8.0;63.0
26641;DHT22;14269;47.358;0.724;2023-12-07T08:12:01;8.0;63.0
26641;DHT22;14269;47.358;0.724;2023-12-07T08:14:43;8.0;62.0
26641;DHT22;14269;47.358;0.724;2023-12-07T08:17:26;8.0;62.0
26641;DHT22;14269;47.358;0.724;2023-12-07T08:20:06;8.0;62.0
26641;DHT22;14269;47.358;0.724;2023-12-07T08:22:47;8.0;61.0
26641;DHT22;14269;47.358;0.724;2023-12-07T08:25:19;8.0;62.0
26641;DHT22;14269;47.358;0.724;2023-12-07T08:27:51;8.0;61.0
26641;DHT22;14269;47.358;0.724;2023-12-07T08:30:22;8.0;62.0
26641;DHT22;14269;47.358;0.724;2023-12-07T08:32:54;8.0;62.0
26641;DHT22;14269;47.358;0.724;2023-12-07T08:35:25;8.0;61.0
26641;DHT22;14269;47.358;0.724;2023-12-07T08:37:57;8.0;63.0
26641;DHT22;14269;47.358;0.724;2023-12-07T08:40:29;8.0;62.0
26641;DHT22;14269;47.358;0.724;2023-12-07T08:43:00;8.0;62.0
26641;DHT22;14269;47.358;0.724;2023-12-07T08:45:33;8.0;63.0
26641;DHT22;14269;47.358;0.724;2023-12-07T08:48:14;8.0;62.0
26641;DHT22;14269;47.358;0.724;2023-12-07T08:50:45;8.0;61.0
26641;DHT22;14269;47.358;0.724;2023-12-07T08:53:17;8.0;62.0
26641;DHT22;14269;47.358;0.724;2023-12-07T08:55:49;8.0;61.0
26641;DHT22;14269;47.358;0.724;2023-12-07T08:58:21;8.0;62.0
26641;DHT22;14269;47.358;0.724;2023-12-07T09:00:52;8.0;62.0
26641;DHT22;14269;47.358;0.724;2023-12-07T09:03:27;8.0;62.0
26641;DHT22;14269;47.358;0.724;2023-12-07T09:06:07;8.0;62.0
26641;DHT22;14269;47.358;0.724;2023-12-07T09:08:47;8.0;62.0
26641;DHT22;14269;47.358;0.724;2023-12-07T09:11:19;8.0;62.0
26641;DHT22;14269;47.358;0.724;2023-12-07T09:13:51;8.0;62.0
26641;DHT22;14269;47.358;0.724;2023-12-07T09:16:22;8.0;63.0
26641;DHT22;14269;47.358;0.724;2023-12-07T09:18:54;8.0;63.0
26641;DHT22;14269;47.358;0.724;2023-12-07T09:21:36;8.0;63.0
26641;DHT22;14269;47.358;0.724;2023-12-07T09:24:07;8.0;63.0
26641;DHT22;14269;47.358;0.724;2023-12-07T09:26:39;8.0;64.0
26641;DHT22;14269;47.358;0.724;2023-12-07T09:29:10;8.0;63.0
26641;DHT22;14269;47.358;0.724;2023-12-07T09:31:42;8.0;64.0
26641;DHT22;14269;47.358;0.724;2023-12-07T09:34:17;8.0;64.0
26641;DHT22;14269;47.358;0.724;2023-12-07T09:37:05;8.0;64.0
26641;DHT22;14269;47.358;0.724;2023-12-07T09:39:37;8.0;64.0
26641;DHT22;14269;47.358;0.724;2023-12-07T09:42:09;8.0;64.0
26641;DHT22;14269;47.358;0.724;2023-12-07T09:44:41;8.0;64.0
26641;DHT22;14269;47.358;0.724;2023-12-07T09:47:12;8.0;63.0
26641;DHT22;14269;47.358;0.724;2023-12-07T09:49:45;8.0;63.0
26641;DHT22;14269;47.358;0.724;2023-12-07T09:52:17;8.0;62.0
26641;DHT22;14269;47.358;0.724;2023-12-07T09:54:57;8.0;63.0
26641;DHT22;14269;47.358;0.724;2023-12-07T09:57:39;8.0;63.0
26641;DHT22;14269;47.358;0.724;2023-12-07T10:00:14;8.0;63.0
26641;DHT22;14269;47.358;0.724;2023-12-07T10:02:53;8.0;63.0
26641;DHT22;14269;47.358;0.724;2023-12-07T10:05:24;8.0;63.0
26641;DHT22;14269;47.358;0.724;2023-12-07T10:07:56;8.0;63.0
26641;DHT22;14269;47.358;0.724;2023-12-07T10:10:27;8.0;64.0
26641;DHT22;14269;47.358;0.724;2023-12-07T10:12:59;8.0;63.0
26641;DHT22;14269;47.358;0.724;2023-12-07T10:15:31;8.0;63.0
26641;DHT22;14269;47.358;0.724;2023-12-07T10:18:03;8.0;63.0
26641;DHT22;14269;47.358;0.724;2023-12-07T10:20:34;8.0;63.0
26641;DHT22;14269;47.358;0.724;2023-12-07T10:23:07;8.0;64.0
26641;DHT22;14269;47.358;0.724;2023-12-07T10:25:47;8.0;63.0
26641;DHT22;14269;47.358;0.724;2023-12-07T10:28:19;8.0;63.0
26641;DHT22;14269;47.358;0.724;2023-12-07T10:31:01;8.0;63.0
26641;DHT22;14269;47.358;0.724;2023-12-07T10:33:33;8.0;63.0
26641;DHT22;14269;47.358;0.724;2023-12-07T10:36:05;8.0;62.0
26641;DHT22;14269;47.358;0.724;2023-12-07T10:38:47;8.0;63.0
26641;DHT22;14269;47.358;0.724;2023-12-07T10:41:28;8.0;63.0
26641;DHT22;14269;47.358;0.724;2023-12-07T10:44:01;8.0;62.0
26641;DHT22;14269;47.358;0.724;2023-12-07T10:46:42;8.0;62.0
26641;DHT22;14269;47.358;0.724;2023-12-07T10:49:23;8.0;62.0
26641;DHT22;14269;47.358;0.724;2023-12-07T10:52:07;8.0;62.0
26641;DHT22;14269;47.358;0.724;2023-12-07T10:54:50;8.0;61.0
26641;DHT22;14269;47.358;0.724;2023-12-07T10:57:29;8.0;62.0
26641;DHT22;14269;47.358;0.724;2023-12-07T11:00:11;8.0;62.0
26641;DHT22;14269;47.358;0.724;2023-12-07T11:02:52;8.0;62.0
26641;DHT22;14269;47.358;0.724;2023-12-07T11:05:23;9.0;61.0
26641;DHT22;14269;47.358;0.724;2023-12-07T11:07:59;9.0;61.0
26641;DHT22;14269;47.358;0.724;2023-12-07T11:10:42;9.0;62.0
26641;DHT22;14269;47.358;0.724;2023-12-07T11:13:22;9.0;60.0
26641;DHT22;14269;47.358;0.724;2023-12-07T11:16:00;9.0;60.0
26641;DHT22;14269;47.358;0.724;2023-12-07T11:18:32;9.0;59.0
26641;DHT22;14269;47.358;0.724;2023-12-07T11:21:04;9.0;60.0
26641;DHT22;14269;47.358;0.724;2023-12-07T11:23:36;9.0;60.0
26641;DHT22;14269;47.358;0.724;2023-12-07T11:26:07;9.0;60.0
26641;DHT22;14269;47.358;0.724;2023-12-07T11:28:39;9.0;61.0
26641;DHT22;14269;47.358;0.724;2023-12-07T11:31:21;9.0;60.0
26641;DHT22;14269;47.358;0.724;2023-12-07T11:34:05;8.0;61.0
26641;DHT22;14269;47.358;0.724;2023-12-07T11:36:46;9.0;60.0
26641;DHT22;14269;47.358;0.724;2023-12-07T11:39:26;9.0;61.0
26641;DHT22;14269;47.358;0.724;2023-12-07T11:42:10;9.0;59.0
26641;DHT22;14269;47.358;0.724;2023-12-07T11:44:50;9.0;60.0
26641;DHT22;14269;47.358;0.724;2023-12-07T11:47:21;9.0;59.0
26641;DHT22;14269;47.358;0.724;2023-12-07T11:49:52;9.0;59.0
26641;DHT22;14269;47.358;0.724;2023-12-07T11:52:24;9.0;58.0
26641;DHT22;14269;47.358;0.724;2023-12-07T11:55:06;9.0;58.0
26641;DHT22;14269;47.358;0.724;2023-12-07T11:57:38;9.0;58.0
26641;DHT22;14269;47.358;0.724;2023-12-07T12:00:10;9.0;58.0
26641;DHT22;14269;47.358;0.724;2023-12-07T12:02:51;9.0;58.0
26641;DHT22;14269;47.358;0.724;2023-12-07T12:05:22;9.0;57.0
26641;DHT22;14269;47.358;0.724;2023-12-07T12:07:54;9.0;57.0
26641;DHT22;14269;47.358;0.724;2023-12-07T12:10:26;9.0;56.0
26641;DHT22;14269;47.358;0.724;2023-12-07T12:13:01;9.0;57.0
26641;DHT22;14269;47.358;0.724;2023-12-07T12:15:40;9.0;57.0
26641;DHT22;14269;47.358;0.724;2023-12-07T12:18:12;9.0;57.0
26641;DHT22;14269;47.358;0.724;2023-12-07T12:20:54;9.0;57.0
26641;DHT22;14269;47.358;0.724;2023-12-07T12:23:34;10.0;56.0
26641;DHT22;14269;47.358;0.724;2023-12-07T12:26:07;9.0;56.0
26641;DHT22;14269;47.358;0.724;2023-12-07T12:28:48;10.0;55.0
26641;DHT22;14269;47.358;0.724;2023-12-07T12:31:19;10.0;55.0
26641;DHT22;14269;47.358;0.724;2023-12-07T12:33:51;10.0;56.0
26641;DHT22;14269;47.358;0.724;2023-12-07T12:36:23;10.0;54.0
26641;DHT22;14269;47.358;0.724;2023-12-07T12:39:08;10.0;55.0
26641;DHT22;14269;47.358;0.724;2023-12-07T12:41:46;9.0;56.0
26641;DHT22;14269;47.358;0.724;2023-12-07T12:44:19;10.0;55.0
26641;DHT22;14269;47.358;0.724;2023-12-07T12:46:59;9.0;56.0
26641;DHT22;14269;47.358;0.724;2023-12-07T12:49:40;10.0;54.0
26641;DHT22;14269;47.358;0.724;2023-12-07T12:52:16;9.0;55.0
26641;DHT22;14269;47.358;0.724;2023-12-07T12:54:55;9.0;56.0
26641;DHT22;14269;47.358;0.724;2023-12-07T12:57:37;9.0;56.0
26641;DHT22;14269;47.358;0.724;2023-12-07T13:00:19;10.0;55.0
26641;DHT22;14269;47.358;0.724;2023-12-07T13:03:00;10.0;55.0
26641;DHT22;14269;47.358;0.724;2023-12-07T13:05:32;10.0;54.0
26641;DHT22;14269;47.358;0.724;2023-12-07T13:08:13;10.0;54.0
26641;DHT22;14269;47.358;0.724;2023-12-07T13:10:45;10.0;54.0
26641;DHT22;14269;47.358;0.724;2023-12-07T13:13:16;10.0;54.0
26641;DHT22;14269;47.358;0.724;2023-12-07T13:15:48;10.0;54.0
26641;DHT22;14269;47.358;0.724;2023-12-07T13:18:20;10.0;54.0
26641;DHT22;14269;47.358;0.724;2023-12-07T13:20:51;11.0;52.0
26641;DHT22;14269;47.358;0.724;2023-12-07T13:23:23;10.0;52.0
26641;DHT22;14269;47.358;0.724;2023-12-07T13:25:55;10.0;51.0
26641;DHT22;14269;47.358;0.724;2023-12-07T13:28:26;10.0;52.0
26641;DHT22;14269;47.358;0.724;2023-12-07T13:30:58;10.0;53.0
26641;DHT22;14269;47.358;0.724;2023-12-07T13:33:30;10.0;53.0
26641;DHT22;14269;47.358;0.724;2023-12-07T13:36:02;10.0;52.0
26641;DHT22;14269;47.358;0.724;2023-12-07T13:38:34;10.0;52.0
26641;DHT22;14269;47.358;0.724;2023-12-07T13:41:15;10.0;52.0
26641;DHT22;14269;47.358;0.724;2023-12-07T13:43:56;10.0;52.0
26641;DHT22;14269;47.358;0.724;2023-12-07T13:46:28;10.0;52.0
26641;DHT22;14269;47.358;0.724;2023-12-07T13:49:01;10.0;53.0
26641;DHT22;14269;47.358;0.724;2023-12-07T13:51:42;10.0;53.0
26641;DHT22;14269;47.358;0.724;2023-12-07T13:54:13;10.0;54.0
26641;DHT22;14269;47.358;0.724;2023-12-07T13:56:45;10.0;55.0
26641;DHT22;14269;47.358;0.724;2023-12-07T13:59:16;10.0;55.0
26641;DHT22;14269;47.358;0.724;2023-12-07T14:01:48;10.0;56.0
26641;DHT22;14269;47.358;0.724;2023-12-07T14:04:20;10.0;57.0
26641;DHT22;14269;47.358;0.724;2023-12-07T14:06:52;10.0;57.0
26641;DHT22;14269;47.358;0.724;2023-12-07T14:09:23;10.0;57.0
26641;DHT22;14269;47.358;0.724;2023-12-07T14:11:55;10.0;57.0
26641;DHT22;14269;47.358;0.724;2023-12-07T14:14:27;10.0;57.0
26641;DHT22;14269;47.358;0.724;2023-12-07T14:16:58;10.0;58.0
26641;DHT22;14269;47.358;0.724;2023-12-07T14:19:30;10.0;58.0
26641;DHT22;14269;47.358;0.724;2023-12-07T14:22:02;10.0;58.0
26641;DHT22;14269;47.358;0.724;2023-12-07T14:24:36;10.0;58.0
26641;DHT22;14269;47.358;0.724;2023-12-07T14:27:15;10.0;57.0
26641;DHT22;14269;47.358;0.724;2023-12-07T14:29:46;10.0;58.0
26641;DHT22;14269;47.358;0.724;2023-12-07T14:32:18;10.0;57.0
26641;DHT22;14269;47.358;0.724;2023-12-07T14:34:51;10.0;57.0
26641;DHT22;14269;47.358;0.724;2023-12-07T14:37:31;10.0;58.0
26641;DHT22;14269;47.358;0.724;2023-12-07T14:40:05;10.0;58.0
26641;DHT22;14269;47.358;0.724;2023-12-07T14:42:45;10.0;58.0
26641;DHT22;14269;47.358;0.724;2023-12-07T14:45:20;10.0;58.0
26641;DHT22;14269;47.358;0.724;2023-12-07T14:47:58;10.0;58.0
26641;DHT22;14269;47.358;0.724;2023-12-07T14:50:30;10.0;59.0
26641;DHT22;14269;47.358;0.724;2023-12-07T14:53:04;10.0;59.0
26641;DHT22;14269;47.358;0.724;2023-12-07T14:55:45;10.0;58.0
26641;DHT22;14269;47.358;0.724;2023-12-07T14:58:25;10.0;57.0
26641;DHT22;14269;47.358;0.724;2023-12-07T15:00:57;10.0;58.0
26641;DHT22;14269;47.358;0.724;2023-12-07T15:03:28;10.0;58.0
26641;DHT22;14269;47.358;0.724;2023-12-07T15:06:01;10.0;59.0
26641;DHT22;14269;47.358;0.724;2023-12-07T15:08:31;9.0;59.0
26641;DHT22;14269;47.358;0.724;2023-12-07T15:11:04;9.0;60.0
26641;DHT22;14269;47.358;0.724;2023-12-07T15:13:35;10.0;60.0
26641;DHT22;14269;47.358;0.724;2023-12-07T15:16:07;10.0;60.0
26641;DHT22;14269;47.358;0.724;2023-12-07T15:18:48;9.0;62.0
26641;DHT22;14269;47.358;0.724;2023-12-07T15:21:20;9.0;62.0
26641;DHT22;14269;47.358;0.724;2023-12-07T15:23:52;9.0;63.0
26641;DHT22;14269;47.358;0.724;2023-12-07T15:26:23;9.0;62.0
26641;DHT22;14269;47.358;0.724;2023-12-07T15:28:55;9.0;64.0
26641;DHT22;14269;47.358;0.724;2023-12-07T15:31:26;9.0;64.0
26641;DHT22;14269;47.358;0.724;2023-12-07T15:33:59;9.0;64.0
26641;DHT22;14269;47.358;0.724;2023-12-07T15:36:30;9.0;65.0
26641;DHT22;14269;47.358;0.724;2023-12-07T15:39:02;9.0;65.0
26641;DHT22;14269;47.358;0.724;2023-12-07T15:41:33;9.0;66.0
26641;DHT22;14269;47.358;0.724;2023-12-07T15:44:05;9.0;66.0
26641;DHT22;14269;47.358;0.724;2023-12-07T15:46:36;9.0;67.0
26641;DHT22;14269;47.358;0.724;2023-12-07T15:49:08;9.0;67.0
26641;DHT22;14269;47.358;0.724;2023-12-07T15:51:40;9.0;67.0
26641;DHT22;14269;47.358;0.724;2023-12-07T15:54:11;9.0;68.0
26641;DHT22;14269;47.358;0.724;2023-12-07T15:56:44;9.0;68.0
26641;DHT22;14269;47.358;0.724;2023-12-07T15:59:25;9.0;68.0
26641;DHT22;14269;47.358;0.724;2023-12-07T16:01:56;9.0;69.0
26641;DHT22;14269;47.358;0.724;2023-12-07T16:04:28;9.0;69.0
26641;DHT22;14269;47.358;0.724;2023-12-07T16:07:02;9.0;69.0
26641;DHT22;14269;47.358;0.724;2023-12-07T16:09:42;9.0;70.0
26641;DHT22;14269;47.358;0.724;2023-12-07T16:12:13;9.0;70.0
26641;DHT22;14269;47.358;0.724;2023-12-07T16:14:45;9.0;70.0
26641;DHT22;14269;47.358;0.724;2023-12-07T16:17:16;9.0;71.0
26641;DHT22;14269;47.358;0.724;2023-12-07T16:19:48;9.0;70.0
26641;DHT22;14269;47.358;0.724;2023-12-07T16:22:20;9.0;71.0
26641;DHT22;14269;47.358;0.724;2023-12-07T16:24:52;9.0;71.0
26641;DHT22;14269;47.358;0.724;2023-12-07T16:27:23;9.0;71.0
26641;DHT22;14269;47.358;0.724;2023-12-07T16:29:55;9.0;71.0
26641;DHT22;14269;47.358;0.724;2023-12-07T16:32:26;9.0;71.0
26641;DHT22;14269;47.358;0.724;2023-12-07T16:34:59;9.0;70.0
26641;DHT22;14269;47.358;0.724;2023-12-07T16:37:40;10.0;71.0
26641;DHT22;14269;47.358;0.724;2023-12-07T16:40:11;10.0;70.0
26641;DHT22;14269;47.358;0.724;2023-12-07T16:42:43;10.0;70.0
26641;DHT22;14269;47.358;0.724;2023-12-07T16:45:15;9.0;70.0
26641;DHT22;14269;47.358;0.724;2023-12-07T16:47:49;9.0;70.0
26641;DHT22;14269;47.358;0.724;2023-12-07T16:50:28;9.0;70.0
26641;DHT22;14269;47.358;0.724;2023-12-07T16:53:00;9.0;71.0
26641;DHT22;14269;47.358;0.724;2023-12-07T16:55:31;9.0;71.0
26641;DHT22;14269;47.358;0.724;2023-12-07T16:58:03;9.0;71.0